Time;durP1;ratioP1;P1;durP2;ratioP2;P2;SDS_P1;SDS_P2;PMS_P1;PMS_P2;Temp;Humidity;BMP_temperature;BMP_pressure;BME280_temperature;BME280_humidity;BME280_pressure;Samples;Min_cycle;Max_cycle;Signal;HPM_P1;HPM_P2
2022/10/16 00:01:48;;;;;;;28.30;14.90;;;;;;;12.24;64.92;99281.73;103048;1305;97889;-78
2022/10/16 00:04:16;;;;;;;28.40;14.80;;;;;;;12.22;64.90;99279.34;103118;1290;97788;-79
2022/10/16 00:06:43;;;;;;;25.90;14.60;;;;;;;12.21;64.86;99278.03;103087;1306;111183;-79
2022/10/16 00:09:16;;;;;;;27.30;14.80;;;;;;;12.20;64.85;99276.99;102981;1307;95396;-81
2022/10/16 00:11:44;;;;;;;28.00;15.20;;;;;;;12.19;64.84;99272.10;102993;1299;107471;-80
2022/10/16 00:14:16;;;;;;;27.30;15.50;;;;;;;12.19;64.87;99271.23;103151;1305;97902;-78
2022/10/16 00:16:43;;;;;;;27.60;14.70;;;;;;;12.19;64.96;99273.03;103368;1305;97883;-80
2022/10/16 00:19:15;;;;;;;25.60;14.40;;;;;;;12.19;65.07;99277.83;103622;1299;110375;-79
2022/10/16 00:21:43;;;;;;;25.90;14.70;;;;;;;12.18;65.11;99279.70;103260;1299;96414;-80
2022/10/16 00:24:11;;;;;;;28.60;13.80;;;;;;;12.16;65.07;99279.39;103089;1290;107433;-79
2022/10/16 00:26:43;;;;;;;26.90;14.80;;;;;;;12.17;65.07;99279.94;103099;1300;97914;-80
2022/10/16 00:29:14;;;;;;;26.70;14.00;;;;;;;12.17;65.40;99280.46;103050;1305;95363;-81
2022/10/16 00:31:42;;;;;;;26.50;13.90;;;;;;;12.16;65.17;99282.84;103066;1307;111019;-80
2022/10/16 00:34:09;;;;;;;28.30;14.70;;;;;;;12.16;65.33;99284.44;103093;1305;97917;-79
2022/10/16 00:36:37;;;;;;;25.10;14.20;;;;;;;12.16;65.32;99288.34;103088;1303;107488;-80
2022/10/16 00:39:09;;;;;;;30.20;14.00;;;;;;;12.17;65.50;99293.43;103050;1302;97952;-80
2022/10/16 00:41:36;;;;;;;26.00;14.30;;;;;;;12.17;65.46;99294.65;103107;1300;95214;-80
2022/10/16 00:44:59;;;;;;;25.80;14.50;;;;;;;12.18;65.50;99296.68;103089;1299;112118;-81
2022/10/16 00:47:49;;;;;;;23.60;13.10;;;;;;;12.19;65.70;99299.83;102320;1305;95267;-79
2022/10/16 00:50:28;;;;;;;26.70;14.40;;;;;;;12.21;65.71;99305.73;103093;1294;107481;-80
2022/10/16 00:52:59;;;;;;;27.50;15.50;;;;;;;12.22;65.74;99309.02;103151;1303;97888;-81
2022/10/16 00:55:31;;;;;;;27.00;14.80;;;;;;;12.24;65.61;99310.70;103202;1304;98043;-79
2022/10/16 00:58:00;;;;;;;27.00;14.30;;;;;;;12.24;65.73;99316.91;103141;1303;111131;-80
2022/10/16 01:00:31;;;;;;;28.50;15.20;;;;;;;12.24;65.69;99317.23;103116;1297;97847;-79
2022/10/16 01:03:23;;;;;;;23.60;13.20;;;;;;;12.24;65.75;99313.36;103148;1297;108096;-79
2022/10/16 01:06:28;;;;;;;27.00;15.20;;;;;;;12.22;65.83;99317.55;103130;1300;97983;-78
2022/10/16 01:09:17;;;;;;;27.10;14.50;;;;;;;12.19;66.63;99314.05;102846;1304;97883;-80
2022/10/16 01:11:59;;;;;;;23.80;13.90;;;;;;;12.15;66.21;99310.98;103099;1300;111154;-79
2022/10/16 01:14:55;;;;;;;25.10;14.10;;;;;;;12.11;66.10;99316.27;103070;1292;97968;-81
2022/10/16 01:18:08;;;;;;;24.00;13.40;;;;;;;12.08;66.23;99317.92;103150;1296;107461;-79
2022/10/16 01:20:57;;;;;;;28.90;15.00;;;;;;;12.04;66.23;99318.52;102938;1299;97950;-82
2022/10/16 01:23:59;;;;;;;26.70;14.00;;;;;;;12.03;66.18;99318.48;103108;1304;98470;-80
2022/10/16 01:26:46;;;;;;;26.20;13.20;;;;;;;12.01;66.35;99323.05;103170;1298;111140;-79
2022/10/16 01:29:25;;;;;;;25.20;12.90;;;;;;;12.00;66.29;99319.92;103031;1304;98017;-82
2022/10/16 01:32:00;;;;;;;21.90;12.70;;;;;;;12.00;66.46;99323.30;103075;1300;107593;-81
2022/10/16 01:34:38;;;;;;;25.40;14.10;;;;;;;11.99;66.37;99323.04;103040;1298;97948;-81
2022/10/16 01:37:15;;;;;;;25.20;13.80;;;;;;;11.98;66.39;99324.65;102966;1301;96504;-80
2022/10/16 01:39:50;;;;;;;23.20;13.20;;;;;;;11.97;66.33;99328.14;103030;1298;111773;-80
2022/10/16 01:42:26;;;;;;;27.40;13.60;;;;;;;11.96;66.38;99327.45;103123;1304;98067;-82
2022/10/16 01:44:56;;;;;;;26.50;14.00;;;;;;;11.96;66.54;99329.47;103075;1299;107461;-81
2022/10/16 01:47:28;;;;;;;28.20;13.70;;;;;;;11.95;66.49;99328.49;103143;1305;97816;-80
2022/10/16 01:50:01;;;;;;;27.10;13.50;;;;;;;11.93;66.47;99331.63;103141;1307;98390;-81
2022/10/16 01:52:29;;;;;;;25.50;13.90;;;;;;;11.91;66.45;99332.80;103148;1298;111213;-80
2022/10/16 01:55:08;;;;;;;24.90;13.10;;;;;;;11.89;66.83;99323.52;103131;1298;98098;-83
2022/10/16 01:57:46;;;;;;;24.90;14.90;;;;;;;11.87;66.69;99326.89;103052;1299;107503;-81
2022/10/16 02:00:20;;;;;;;25.80;12.80;;;;;;;11.86;66.67;99324.31;103207;1296;96573;-82
2022/10/16 02:02:55;;;;;;;25.00;13.00;;;;;;;11.85;66.74;99328.96;103178;1297;95214;-81
2022/10/16 02:05:32;;;;;;;25.60;13.70;;;;;;;11.86;66.99;99327.33;103030;1297;110689;-82
2022/10/16 02:08:04;;;;;;;28.10;13.40;;;;;;;11.86;66.98;99325.92;103080;1297;97998;-81
2022/10/16 02:10:37;;;;;;;25.50;13.40;;;;;;;11.84;66.93;99322.30;103043;1301;107570;-81
2022/10/16 02:13:27;;;;;;;25.20;13.70;;;;;;;11.84;67.16;99328.71;103147;1296;98522;-82
2022/10/16 02:15:58;;;;;;;26.90;13.80;;;;;;;11.83;67.42;99329.64;103083;1297;98659;-81
2022/10/16 02:18:31;;;;;;;27.60;13.60;;;;;;;11.83;67.08;99330.55;103096;1304;110673;-80
2022/10/16 02:21:23;;;;;;;30.60;13.60;;;;;;;11.86;67.15;99337.11;103099;1300;95829;-81
2022/10/16 02:24:08;;;;;;;26.80;13.40;;;;;;;11.87;67.19;99340.23;103118;1302;107512;-81
2022/10/16 02:26:44;;;;;;;;;;;;;;;11.89;67.16;99338.49;103094;1302;95866;-80
2022/10/16 02:29:20;;;;;;;24.90;13.20;;;;;;;11.88;67.22;99339.45;103083;1299;98023;-79
2022/10/16 02:32:04;;;;;;;25.20;12.40;;;;;;;11.89;67.21;99343.39;102974;1306;110267;-79
2022/10/16 02:34:37;;;;;;;27.20;14.30;;;;;;;11.92;67.17;99343.61;103020;1300;95378;-79
2022/10/16 02:37:10;;;;;;;31.00;13.00;;;;;;;11.94;67.21;99346.46;103108;1296;107589;-79
2022/10/16 02:39:42;;;;;;;24.10;12.00;;;;;;;11.97;67.30;99348.22;103091;1298;95228;-79
2022/10/16 02:42:17;;;;;;;26.20;13.20;;;;;;;12.00;67.42;99351.72;103101;1306;97869;-83
2022/10/16 02:44:45;;;;;;;25.90;13.00;;;;;;;12.04;67.40;99350.19;102979;1303;110196;-81
2022/10/16 02:47:14;;;;;;;25.50;13.00;;;;;;;12.07;67.44;99347.84;103159;1300;95727;-81
2022/10/16 02:49:41;;;;;;;22.30;12.40;;;;;;;12.11;67.42;99345.09;103118;1307;107408;-80
2022/10/16 02:52:09;;;;;;;25.20;12.80;;;;;;;12.13;67.47;99343.55;103049;1300;98555;-80
2022/10/16 02:54:37;;;;;;;27.00;13.20;;;;;;;12.15;67.32;99342.13;103114;1299;97960;-80
2022/10/16 02:57:04;;;;;;;26.30;12.40;;;;;;;12.17;67.49;99338.23;103150;1296;111188;-80
2022/10/16 02:59:32;;;;;;;22.10;11.20;;;;;;;12.18;67.40;99340.64;103133;1303;97995;-80
2022/10/16 03:02:00;;;;;;;25.50;12.10;;;;;;;12.19;67.55;99340.38;103125;1304;107530;-80
2022/10/16 03:04:28;;;;;;;22.80;11.70;;;;;;;12.19;67.48;99339.66;103132;1300;96620;-80
2022/10/16 03:06:55;;;;;;;26.40;12.30;;;;;;;12.19;67.56;99341.45;103187;1298;97893;-79
2022/10/16 03:09:23;;;;;;;25.30;12.80;;;;;;;12.20;67.44;99344.55;103143;1299;111121;-79
2022/10/16 03:11:52;;;;;;;24.80;12.50;;;;;;;12.20;67.51;99342.59;103145;1300;97925;-80
2022/10/16 03:14:23;;;;;;;22.10;11.70;;;;;;;12.21;67.52;99346.05;103162;1303;108085;-80
2022/10/16 03:16:51;;;;;;;25.10;12.20;;;;;;;12.22;67.62;99344.22;103156;1303;95796;-81
2022/10/16 03:19:19;;;;;;;24.90;12.50;;;;;;;12.24;67.57;99351.74;103164;1298;97920;-79
2022/10/16 03:21:47;;;;;;;23.10;11.90;;;;;;;12.24;67.60;99356.54;103193;1297;109838;-80
2022/10/16 03:24:18;;;;;;;23.90;12.10;;;;;;;12.25;67.84;99354.30;103194;1304;95249;-79
2022/10/16 03:26:46;;;;;;;27.20;12.60;;;;;;;12.27;67.68;99355.09;103118;1298;107421;-82
2022/10/16 03:29:18;;;;;;;26.00;12.10;;;;;;;12.28;67.63;99362.64;103129;1299;95197;-83
2022/10/16 03:31:45;;;;;;;25.70;13.00;;;;;;;12.30;67.71;99367.14;103137;1298;97870;-81
2022/10/16 03:34:13;;;;;;;24.40;12.70;;;;;;;12.32;67.69;99363.79;103213;1298;111083;-77
2022/10/16 03:36:41;;;;;;;21.90;12.40;;;;;;;12.34;67.80;99362.76;103134;1303;97905;-79
2022/10/16 03:39:08;;;;;;;25.80;13.20;;;;;;;12.35;67.87;99362.45;103149;1305;107506;-78
2022/10/16 03:41:36;;;;;;;25.20;13.20;;;;;;;12.37;67.83;99359.64;103155;1306;97977;-80
2022/10/16 03:44:04;;;;;;;27.30;13.20;;;;;;;12.37;67.79;99353.80;103187;1303;97845;-80
2022/10/16 03:46:32;;;;;;;23.90;12.00;;;;;;;12.37;67.89;99359.48;103453;1304;110732;-80
2022/10/16 03:48:59;;;;;;;25.10;12.20;;;;;;;12.39;67.83;99361.70;103752;1304;97872;-80
2022/10/16 03:51:33;;;;;;;26.00;12.10;;;;;;;12.40;67.87;99360.50;103877;1304;106141;-81
2022/10/16 03:54:01;;;;;;;25.40;12.50;;;;;;;12.42;67.86;99362.52;103175;1297;97981;-79
2022/10/16 03:56:29;;;;;;;23.80;12.10;;;;;;;12.43;67.93;99360.80;103071;1303;98026;-82
2022/10/16 03:58:56;;;;;;;22.90;12.50;;;;;;;12.45;67.87;99366.52;103065;1303;111205;-80
2022/10/16 04:01:24;;;;;;;28.40;12.60;;;;;;;12.47;67.81;99371.72;103070;1303;98411;-79
2022/10/16 04:03:52;;;;;;;25.70;12.90;;;;;;;12.49;67.90;99371.03;103065;1304;107544;-78
2022/10/16 04:06:20;;;;;;;23.90;12.80;;;;;;;12.50;68.00;99374.84;103136;1303;97933;-78
2022/10/16 04:08:47;;;;;;;23.40;11.70;;;;;;;12.52;67.98;99379.17;103101;1298;95210;-79
2022/10/16 04:11:15;;;;;;;27.40;12.60;;;;;;;12.53;67.98;99380.89;103074;1303;110657;-81
2022/10/16 04:13:43;;;;;;;24.20;11.40;;;;;;;12.54;67.88;99380.29;103001;1301;97959;-80
2022/10/16 04:16:14;;;;;;;21.30;11.00;;;;;;;12.55;68.04;99385.68;103036;1306;105745;-81
2022/10/16 04:18:42;;;;;;;25.40;11.20;;;;;;;12.56;68.00;99386.31;103086;1303;97972;-81
2022/10/16 04:21:10;;;;;;;25.90;11.80;;;;;;;12.58;68.03;99382.66;103097;1290;95294;-80
2022/10/16 04:23:37;;;;;;;24.70;12.00;;;;;;;12.59;68.00;99381.52;103122;1303;111082;-81
2022/10/16 04:26:10;;;;;;;23.40;11.90;;;;;;;12.59;67.90;99385.72;103129;1303;97983;-81
2022/10/16 04:28:39;;;;;;;23.00;10.80;;;;;;;12.59;68.02;99386.88;103248;1290;107673;-82
2022/10/16 04:31:11;;;;;;;23.60;11.70;;;;;;;12.59;67.98;99382.92;103290;1297;97978;-80
2022/10/16 04:33:45;;;;;;;23.10;11.80;;;;;;;12.59;67.98;99392.50;102993;1307;97988;-81
2022/10/16 04:36:13;;;;;;;22.40;10.80;;;;;;;12.60;67.94;99391.05;103169;1297;110774;-81
2022/10/16 04:38:42;;;;;;;24.30;11.50;;;;;;;12.60;68.02;99390.83;103133;1304;98021;-81
2022/10/16 04:41:09;;;;;;;21.10;11.40;;;;;;;12.61;68.03;99387.17;103160;1306;107533;-81
2022/10/16 04:43:37;;;;;;;21.90;11.30;;;;;;;12.63;67.94;99391.88;103093;1298;147267;-81
2022/10/16 04:46:05;;;;;;;25.90;12.30;;;;;;;12.64;67.99;99397.42;103157;1304;95232;-81
2022/10/16 04:48:34;;;;;;;23.50;11.20;;;;;;;12.66;68.05;99398.76;103172;1297;111087;-81
2022/10/16 04:51:02;;;;;;;22.10;11.50;;;;;;;12.66;67.97;99399.99;103148;1296;95744;-81
2022/10/16 04:53:34;;;;;;;23.80;11.70;;;;;;;12.67;67.95;99406.35;103148;1303;108135;-81
2022/10/16 04:56:02;;;;;;;23.00;12.00;;;;;;;12.67;68.04;99404.19;103033;1303;97893;-80
2022/10/16 04:58:29;;;;;;;23.00;12.00;;;;;;;12.67;67.98;99409.89;102990;1304;95721;-81
2022/10/16 05:00:59;;;;;;;23.60;11.70;;;;;;;12.68;68.05;99417.13;103125;1296;110780;-78
2022/10/16 05:03:27;;;;;;;22.90;11.70;;;;;;;12.69;68.05;99419.18;103083;1303;97886;-79
2022/10/16 05:05:55;;;;;;;25.10;12.30;;;;;;;12.70;67.97;99422.84;103059;1303;107170;-80
2022/10/16 05:08:22;;;;;;;22.80;12.00;;;;;;;12.70;67.91;99418.38;103132;1296;97872;-80
2022/10/16 05:10:50;;;;;;;26.30;12.50;;;;;;;12.71;68.11;99425.77;103154;1301;95280;-80
2022/10/16 05:13:18;;;;;;;22.70;11.50;;;;;;;12.72;68.03;99428.70;103050;1303;111120;-80
2022/10/16 05:15:49;;;;;;;24.00;12.10;;;;;;;12.74;68.02;99425.56;103081;1303;98084;-79
2022/10/16 05:18:16;;;;;;;25.30;11.80;;;;;;;12.74;68.02;99421.42;103074;1303;107159;-80
2022/10/16 05:20:44;;;;;;;22.00;12.10;;;;;;;12.76;68.09;99423.80;103074;1304;97003;-79
2022/10/16 05:23:12;;;;;;;23.80;11.90;;;;;;;12.77;68.09;99429.56;103090;1305;98690;-82
2022/10/16 05:25:55;;;;;;;23.50;11.00;;;;;;;12.79;68.05;99426.75;103174;1303;111554;-80
2022/10/16 05:28:31;;;;;;;20.80;9.90;;;;;;;12.81;68.07;99420.78;103152;1305;97809;-76
2022/10/16 05:30:59;;;;;;;24.00;11.20;;;;;;;12.84;68.05;99425.02;102983;1311;107533;-79
2022/10/16 05:33:30;;;;;;;22.00;11.30;;;;;;;12.85;67.92;99428.60;103119;1304;97952;-82
2022/10/16 05:36:07;;;;;;;24.70;11.80;;;;;;;12.86;67.96;99434.06;103073;1304;95562;-80
2022/10/16 05:38:40;;;;;;;21.20;11.00;;;;;;;12.87;68.06;99444.34;103121;1298;111113;-82
2022/10/16 05:41:07;;;;;;;23.30;11.70;;;;;;;12.89;68.04;99447.92;103090;1304;98631;-81
2022/10/16 05:43:35;;;;;;;24.10;11.80;;;;;;;12.90;68.03;99446.91;103155;1303;107423;-80
2022/10/16 05:46:08;;;;;;;24.70;10.40;;;;;;;12.92;68.04;99445.52;102926;1298;97999;-78
2022/10/16 05:48:35;;;;;;;24.70;12.10;;;;;;;12.96;68.06;99442.79;103118;1305;97914;-84
2022/10/16 05:51:08;;;;;;;22.70;11.10;;;;;;;12.99;68.09;99446.30;103264;1296;110723;-83
2022/10/16 05:53:41;;;;;;;26.60;11.00;;;;;;;13.02;68.06;99451.76;103220;1304;97896;-84
2022/10/16 05:56:18;;;;;;;23.20;11.00;;;;;;;13.07;68.05;99456.00;103129;1303;107452;-83
2022/10/16 05:58:46;;;;;;;23.00;11.60;;;;;;;13.11;67.97;99456.92;103214;1303;97875;-84
2022/10/16 06:01:23;;;;;;;24.60;11.30;;;;;;;13.16;68.01;99458.73;103286;1305;97871;-85
2022/10/16 06:03:55;;;;;;;23.60;10.90;;;;;;;13.19;67.95;99462.91;103120;1302;109773;-80
2022/10/16 06:06:30;;;;;;;22.50;10.90;;;;;;;13.20;68.10;99464.39;103097;1307;99492;-82
2022/10/16 06:08:59;;;;;;;25.50;11.10;;;;;;;13.22;68.01;99467.12;103045;1305;107155;-78
2022/10/16 06:11:36;;;;;;;16.00;8.40;;;;;;;13.24;67.99;99471.08;103038;1303;95157;-83
2022/10/16 06:14:08;;;;;;;21.50;10.60;;;;;;;13.28;67.98;99473.14;103032;1303;97998;-77
2022/10/16 06:16:40;;;;;;;22.10;11.00;;;;;;;13.31;67.99;99478.67;103036;1300;110844;-78
2022/10/16 06:19:09;;;;;;;23.00;10.30;;;;;;;13.34;68.00;99477.59;103075;1303;95211;-78
2022/10/16 06:21:47;;;;;;;23.40;11.70;;;;;;;13.38;68.01;99477.29;103057;1304;107507;-78
2022/10/16 06:24:15;;;;;;;22.70;10.40;;;;;;;13.44;67.91;99479.73;103063;1303;96688;-80
2022/10/16 06:26:46;;;;;;;24.00;10.70;;;;;;;13.50;67.95;99477.30;103058;1297;95205;-80
2022/10/16 06:29:14;;;;;;;25.90;10.90;;;;;;;13.55;67.87;99487.05;103133;1298;111137;-83
2022/10/16 06:31:42;;;;;;;23.80;10.50;;;;;;;13.60;67.91;99493.30;103314;1302;97893;-78
2022/10/16 06:34:14;;;;;;;25.60;10.70;;;;;;;13.63;67.88;99498.40;103071;1305;108180;-79
2022/10/16 06:36:43;;;;;;;22.40;10.40;;;;;;;13.68;67.91;99499.04;103011;1294;97963;-76
2022/10/16 06:39:14;;;;;;;19.40;9.90;;;;;;;13.72;67.89;99502.31;103027;1303;98530;-73
2022/10/16 06:41:42;;;;;;;21.20;10.10;;;;;;;13.77;67.89;99502.11;103097;1300;111131;-76
2022/10/16 06:44:10;;;;;;;23.00;10.70;;;;;;;13.82;67.78;99504.17;102941;1304;95217;-74
2022/10/16 06:46:37;;;;;;;20.30;9.40;;;;;;;13.87;67.76;99506.98;103156;1303;107557;-77
2022/10/16 06:49:09;;;;;;;23.80;10.20;;;;;;;13.92;67.69;99514.13;102954;1303;97987;-80
2022/10/16 06:51:40;;;;;;;21.80;10.60;;;;;;;13.97;67.79;99519.61;103115;1303;95824;-82
2022/10/16 06:54:10;;;;;;;20.00;9.70;;;;;;;14.01;67.74;99521.21;103158;1303;111862;-82
2022/10/16 06:56:38;;;;;;;21.30;9.20;;;;;;;14.07;67.66;99524.00;103131;1303;97903;-81
2022/10/16 06:59:06;;;;;;;23.40;9.60;;;;;;;14.11;67.62;99519.53;103242;1303;107426;-74
2022/10/16 07:01:34;;;;;;;19.40;10.00;;;;;;;14.18;67.67;99522.90;103113;1305;97874;-82
2022/10/16 07:04:02;;;;;;;21.80;9.80;;;;;;;14.23;67.52;99524.27;102976;1303;95234;-76
2022/10/16 07:06:34;;;;;;;22.90;9.70;;;;;;;14.28;67.44;99526.92;102993;1307;109699;-77
2022/10/16 07:09:07;;;;;;;19.30;9.10;;;;;;;14.33;67.45;99523.70;102974;1301;98382;-75
2022/10/16 07:11:40;;;;;;;22.10;9.70;;;;;;;14.38;67.42;99526.13;103164;1304;107577;-77
2022/10/16 07:14:22;;;;;;;21.00;9.40;;;;;;;14.41;67.34;99528.75;103168;1310;98055;-79
2022/10/16 07:16:50;;;;;;;22.70;9.50;;;;;;;14.46;67.35;99532.80;103020;1308;97966;-75
2022/10/16 07:19:18;;;;;;;19.80;9.00;;;;;;;14.51;67.38;99536.81;103187;1304;111189;-74
2022/10/16 07:21:46;;;;;;;20.70;9.50;;;;;;;14.61;67.34;99537.31;103161;1310;97943;-75
2022/10/16 07:24:18;;;;;;;20.00;9.70;;;;;;;14.71;67.06;99533.52;103153;1303;107130;-80
2022/10/16 07:26:46;;;;;;;18.90;9.30;;;;;;;14.80;67.25;99533.27;103051;1301;97918;-80
2022/10/16 07:29:19;;;;;;;23.40;10.40;;;;;;;14.89;66.97;99531.28;103078;1303;99145;-76
2022/10/16 07:31:51;;;;;;;20.60;9.10;;;;;;;14.96;66.99;99533.00;103081;1305;111153;-77
2022/10/16 07:34:23;;;;;;;20.70;9.40;;;;;;;15.03;66.93;99536.39;103038;1303;97922;-78
2022/10/16 07:36:50;;;;;;;22.10;10.20;;;;;;;15.10;66.73;99540.46;103017;1298;107579;-77
2022/10/16 07:39:18;;;;;;;19.70;9.20;;;;;;;15.17;66.93;99542.02;103063;1305;96615;-77
2022/10/16 07:41:46;;;;;;;21.50;9.90;;;;;;;15.24;66.83;99546.55;103078;1303;95125;-76
2022/10/16 07:44:19;;;;;;;20.60;9.60;;;;;;;15.29;66.87;99548.11;103088;1296;111124;-79
2022/10/16 07:46:47;;;;;;;21.90;9.00;;;;;;;15.37;66.71;99552.53;103112;1302;97990;-77
2022/10/16 07:49:14;;;;;;;19.10;8.70;;;;;;;15.45;66.71;99553.80;103068;1305;107464;-79
2022/10/16 07:51:44;;;;;;;19.60;8.60;;;;;;;15.54;66.63;99554.08;103077;1302;97762;-78
2022/10/16 07:54:13;;;;;;;21.40;8.80;;;;;;;15.62;66.58;99555.73;103075;1297;97986;-79
2022/10/16 07:56:41;;;;;;;19.00;8.70;;;;;;;15.64;66.27;99553.61;102996;1306;110217;-78
2022/10/16 07:59:14;;;;;;;20.30;8.90;;;;;;;15.64;66.32;99550.54;103097;1305;97904;-77
2022/10/16 08:01:42;;;;;;;20.20;9.20;;;;;;;15.64;66.08;99553.73;103061;1302;107416;-77
2022/10/16 08:04:10;;;;;;;20.90;9.70;;;;;;;15.65;66.23;99551.58;102906;1306;95931;-77
2022/10/16 08:06:43;;;;;;;20.70;9.20;;;;;;;15.65;65.74;99553.34;103073;1302;97858;-78
2022/10/16 08:09:11;;;;;;;22.00;8.70;;;;;;;15.63;66.07;99557.56;103107;1303;111102;-77
2022/10/16 08:11:41;;;;;;;19.50;8.80;;;;;;;15.67;65.97;99555.88;103111;1303;97915;-77
2022/10/16 08:14:09;;;;;;;21.10;9.50;;;;;;;15.69;65.81;99565.63;102915;1307;107870;-76
2022/10/16 08:16:37;;;;;;;20.70;8.70;;;;;;;15.73;65.89;99562.59;103102;1299;95174;-76
2022/10/16 08:19:05;;;;;;;16.70;7.90;;;;;;;15.80;65.95;99564.70;103173;1307;98040;-81
2022/10/16 08:21:32;;;;;;;18.50;8.40;;;;;;;15.87;65.26;99565.56;103053;1304;110151;-77
2022/10/16 08:24:00;;;;;;;18.70;8.30;;;;;;;15.96;65.61;99569.13;103048;1304;97928;-79
2022/10/16 08:26:31;;;;;;;17.80;8.70;;;;;;;16.12;65.79;99571.88;102898;1304;107543;-80
2022/10/16 08:28:58;;;;;;;18.60;8.30;;;;;;;16.28;65.20;99580.85;102988;1297;95149;-79
2022/10/16 08:31:27;;;;;;;17.50;7.70;;;;;;;16.47;65.71;99580.35;103041;1296;97533;-78
2022/10/16 08:33:59;;;;;;;18.10;8.10;;;;;;;16.85;65.53;99581.88;103025;1297;111376;-79
2022/10/16 08:36:26;;;;;;;15.60;7.40;;;;;;;17.23;65.38;99578.95;103107;1303;96254;-81
2022/10/16 08:38:58;;;;;;;19.70;8.40;;;;;;;17.62;64.58;99581.64;103164;1296;107956;-83
2022/10/16 08:42:03;;;;;;;16.50;7.60;;;;;;;17.91;64.22;99579.98;102982;1306;96123;-78
2022/10/16 08:45:10;;;;;;;19.40;8.00;;;;;;;18.23;63.93;99576.27;103103;1303;98502;-81
2022/10/16 08:48:01;;;;;;;17.90;8.10;;;;;;;18.62;63.46;99579.12;103082;1306;109665;-77
2022/10/16 08:50:33;;;;;;;18.40;7.20;;;;;;;18.89;63.45;99574.19;103025;1303;97993;-78
2022/10/16 08:53:07;;;;;;;17.80;7.50;;;;;;;19.19;63.70;99572.49;103012;1303;107458;-76
2022/10/16 08:55:52;;;;;;;17.00;7.20;;;;;;;19.54;63.20;99571.05;103011;1305;97903;-77
2022/10/16 08:58:29;;;;;;;18.70;7.90;;;;;;;19.77;63.13;99569.31;103026;1303;95368;-77
2022/10/16 09:01:06;;;;;;;19.50;7.80;;;;;;;20.01;62.25;99571.89;103038;1305;110839;-78
2022/10/16 09:04:19;;;;;;;15.30;6.90;;;;;;;20.34;63.53;99573.08;103049;1302;98000;-78
2022/10/16 09:07:16;;;;;;;16.00;7.40;;;;;;;20.88;62.85;99575.31;103021;1311;107356;-79
2022/10/16 09:10:00;;;;;;;19.80;8.20;;;;;;;21.19;61.29;99575.80;103040;1302;98076;-80
2022/10/16 09:13:01;;;;;;;16.80;7.20;;;;;;;21.30;61.77;99576.20;103057;1298;95123;-83
2022/10/16 09:15:53;;;;;;;15.70;7.10;;;;;;;21.39;60.24;99575.02;103051;1309;111108;-75
2022/10/16 09:18:45;;;;;;;14.90;7.10;;;;;;;21.44;59.49;99579.04;102957;1306;97776;-77
2022/10/16 09:21:21;;;;;;;17.40;6.80;;;;;;;21.37;59.55;99590.28;102929;1298;107549;-77
2022/10/16 09:23:51;;;;;;;16.90;6.80;;;;;;;21.40;59.23;99593.48;103114;1302;96818;-78
2022/10/16 09:26:21;;;;;;;19.20;7.70;;;;;;;21.41;57.96;99595.55;103128;1301;97847;-83
2022/10/16 09:28:55;;;;;;;18.50;7.10;;;;;;;21.30;56.51;99598.02;103252;1297;110863;-82
2022/10/16 09:31:23;;;;;;;16.40;7.00;;;;;;;21.17;56.51;99601.23;103232;1298;98526;-72
2022/10/16 09:34:04;;;;;;;18.10;7.30;;;;;;;21.20;58.02;99605.08;103010;1304;107474;-79
2022/10/16 09:36:41;;;;;;;16.40;7.90;;;;;;;21.26;57.19;99603.73;103121;1302;97996;-80
2022/10/16 09:39:14;;;;;;;16.30;7.40;;;;;;;21.12;56.27;99603.01;103117;1310;98000;-75
2022/10/16 09:41:47;;;;;;;17.20;7.80;;;;;;;20.89;55.51;99598.27;103048;1304;111117;-78
2022/10/16 09:44:26;;;;;;;18.20;7.40;;;;;;;20.62;55.83;99600.49;103039;1291;97893;-77
2022/10/16 09:47:14;;;;;;;15.70;7.60;;;;;;;20.54;56.46;99601.66;103056;1296;107188;-77
2022/10/16 09:49:59;;;;;;;17.70;7.50;;;;;;;20.67;56.96;99601.50;103121;1304;95807;-77
2022/10/16 09:52:29;;;;;;;19.30;8.10;;;;;;;20.78;56.61;99604.33;103494;1291;97924;-75
2022/10/16 09:55:13;;;;;;;17.60;7.70;;;;;;;20.88;56.68;99603.30;104772;1304;111065;-75
2022/10/16 09:57:51;;;;;;;18.40;7.20;;;;;;;20.95;55.81;99598.90;104691;1296;95920;-77
2022/10/16 10:00:20;;;;;;;17.30;7.70;;;;;;;20.91;55.84;99597.33;104786;1302;108074;-77
2022/10/16 10:02:48;;;;;;;15.30;7.60;;;;;;;20.88;54.46;99601.06;104766;1297;95651;-76
2022/10/16 10:05:23;;;;;;;21.10;8.10;;;;;;;20.83;55.17;99604.02;104620;1297;95677;-79
2022/10/16 10:08:05;;;;;;;17.70;7.30;;;;;;;20.79;54.70;99606.17;103929;1306;111178;-77
2022/10/16 10:10:42;;;;;;;17.30;8.00;;;;;;;20.86;55.20;99606.17;103099;1298;97884;-78
2022/10/16 10:13:22;;;;;;;21.30;7.30;;;;;;;20.89;54.37;99609.08;103097;1297;107311;-79
2022/10/16 10:15:54;;;;;;;15.40;7.20;;;;;;;20.86;54.76;99608.91;103135;1297;97959;-80
2022/10/16 10:18:23;;;;;;;17.60;8.00;;;;;;;20.95;54.78;99612.27;103165;1303;97926;-78
2022/10/16 10:21:18;;;;;;;17.40;7.20;;;;;;;21.05;54.58;99611.54;103022;1304;111255;-76
2022/10/16 10:23:56;;;;;;;20.30;7.50;;;;;;;21.07;53.88;99612.94;103185;1303;95140;-76
2022/10/16 10:26:30;;;;;;;22.00;7.80;;;;;;;21.05;53.36;99611.35;103096;1300;107491;-77
2022/10/16 10:29:07;;;;;;;17.30;7.00;;;;;;;21.02;53.49;99611.34;103151;1297;95154;-79
2022/10/16 10:31:47;;;;;;;19.80;7.80;;;;;;;21.02;53.27;99609.79;103150;1296;97928;-79
2022/10/16 10:34:33;;;;;;;15.90;7.40;;;;;;;21.08;53.31;99608.35;103163;1303;111124;-78
2022/10/16 10:37:28;;;;;;;18.60;6.60;;;;;;;21.15;53.20;99608.33;103170;1304;98009;-80
2022/10/16 10:40:34;;;;;;;15.40;7.30;;;;;;;21.24;52.99;99606.42;103249;1296;107450;-77
2022/10/16 10:43:10;;;;;;;16.20;6.70;;;;;;;21.27;53.15;99601.55;102890;1306;98393;-77
2022/10/16 10:45:46;;;;;;;15.40;7.10;;;;;;;21.39;53.39;99599.61;103057;1304;98474;-77
2022/10/16 10:48:47;;;;;;;19.30;7.10;;;;;;;21.56;53.30;99595.89;103059;1304;110888;-77
2022/10/16 10:51:42;;;;;;;16.20;6.60;;;;;;;21.75;52.87;99593.28;103084;1296;97890;-80
2022/10/16 10:54:33;;;;;;;20.80;7.80;;;;;;;21.88;52.87;99593.52;103034;1303;106054;-78
2022/10/16 10:57:07;;;;;;;17.80;6.80;;;;;;;21.99;52.59;99590.13;103063;1304;98225;-75
2022/10/16 11:00:17;;;;;;;17.20;6.70;;;;;;;22.04;52.63;99587.98;103097;1305;97885;-74
2022/10/16 11:02:58;;;;;;;18.00;8.00;;;;;;;22.12;52.39;99585.98;103056;1304;111791;-76
2022/10/16 11:05:45;;;;;;;17.70;8.00;;;;;;;22.14;52.17;99586.55;103084;1307;96379;-78
2022/10/16 11:08:21;;;;;;;17.20;7.80;;;;;;;22.21;52.19;99583.02;103023;1291;106871;-77
2022/10/16 11:11:02;;;;;;;18.30;7.20;;;;;;;22.27;52.22;99579.98;103112;1297;97907;-76
2022/10/16 11:13:46;;;;;;;13.80;7.20;;;;;;;22.29;51.75;99580.38;103105;1298;97981;-74
2022/10/16 11:16:27;;;;;;;16.80;6.90;;;;;;;22.13;50.88;99573.77;102949;1307;111153;-75
2022/10/16 11:19:04;;;;;;;16.30;5.90;;;;;;;22.06;51.30;99574.86;102946;1308;97792;-76
2022/10/16 11:21:59;;;;;;;18.10;7.80;;;;;;;22.11;51.21;99581.89;103040;1304;107506;-75
2022/10/16 11:24:55;;;;;;;17.40;6.40;;;;;;;22.10;50.97;99583.31;103081;1304;96293;-76
2022/10/16 11:27:58;;;;;;;17.20;6.40;;;;;;;22.06;50.20;99585.90;103103;1304;95470;-76
2022/10/16 11:30:33;;;;;;;16.10;7.00;;;;;;;22.01;50.56;99585.04;103091;1305;111292;-76
2022/10/16 11:33:07;;;;;;;15.70;7.00;;;;;;;22.02;50.75;99592.35;103083;1307;97890;-78
2022/10/16 11:36:08;;;;;;;17.90;6.90;;;;;;;22.05;50.73;99590.61;103115;1298;107281;-74
2022/10/16 11:38:54;;;;;;;17.60;7.30;;;;;;;22.02;50.13;99595.94;103061;1298;97863;-75
2022/10/16 11:41:43;;;;;;;16.60;7.30;;;;;;;21.96;50.37;99592.97;103060;1304;97886;-76
2022/10/16 11:44:33;;;;;;;17.60;6.90;;;;;;;21.93;50.01;99592.27;103019;1296;111186;-76